メインページ
METAR-TAF:

METAR-TAF

空港 :

グラン・カナリア空港

グラン・カナリア島, スペイン

緯度: 27-56N, 経度: 015-23W, 海抜: 23m

現時点の気象観測

当レポートは25分前の02:00(UTC)に作成
の風 17kt
気温 22°C
湿度 69%
気圧 1018 hPa
視程10km以上
高度3000ftの千切れ雲あり

METAR: GCLP 160200Z 01017KT 9999 BKN030 22/16 Q1018 NOSIG

時間: 03:25 (02:25 UTC)

予報

当レポートは6時間25分前の20:00(UTC)に作成
予報は15日の 21時(UTC)から 16日の 21時(UTC)まで有効
の風 16kt
視程10km以上
高度2500ftの雲は散在している

TAF: GCLP 152000Z 1521/1621 01016KT 9999 SCT025 TX25/1615Z TN21/1605Z

4,000以上の空港の気象観測と天気予報(METAR報とTAF報)

利用可能な観測所は地図上に黄色い丸と赤い丸で示す。

丸の上にカーソルを重ねると観測所名を参照できる。

次にクリックすると気象観測と天気予報を参照できる。

マップの切り替え:黒色「×」印の緑ボタンをクリックして拡大、「-」印の緑ボタンをクリックして縮小、緑色の三角印をクリックして隣りの地図に切り替え


METAR-TAF: